createdAt,value
2022-10-01T00:00:01.103Z,99413.91
2022-10-01T00:03:03.899Z,99418.06
2022-10-01T00:06:09.181Z,99425.78
2022-10-01T00:09:11.969Z,99418.91
2022-10-01T00:12:16.691Z,99424.63
2022-10-01T00:15:21.899Z,99417.56
2022-10-01T00:18:24.569Z,99423.38
2022-10-01T00:21:28.490Z,99415.00
2022-10-01T00:24:31.138Z,99418.50
2022-10-01T00:27:34.741Z,99428.41
2022-10-01T00:30:40.519Z,99428.41
2022-10-01T00:33:43.806Z,99429.34
2022-10-01T00:36:46.499Z,99424.88
2022-10-01T00:39:49.232Z,99434.25
2022-10-01T00:42:51.914Z,99439.91
2022-10-01T00:45:58.368Z,99447.28
2022-10-01T00:49:02.602Z,99452.47
2022-10-01T00:52:07.033Z,99444.56
2022-10-01T00:55:13.049Z,99449.47
2022-10-01T00:58:16.276Z,99445.25
2022-10-01T01:01:23.512Z,99442.75
2022-10-01T01:04:26.455Z,99437.22
2022-10-01T01:07:29.700Z,99439.84
2022-10-01T01:10:40.803Z,99440.53
2022-10-01T01:13:48.523Z,99445.53
2022-10-01T01:16:57.031Z,99450.09
2022-10-01T01:20:07.731Z,99449.25
2022-10-01T01:23:17.959Z,99449.94
2022-10-01T01:26:28.206Z,99446.03
2022-10-01T01:29:35.960Z,99445.88
2022-10-01T01:32:46.366Z,99435.53
2022-10-01T01:35:52.193Z,99433.41
2022-10-01T01:38:57.106Z,99441.09
2022-10-01T01:42:02.850Z,99436.78
2022-10-01T01:45:10.018Z,99434.75
2022-10-01T01:48:13.217Z,99431.44
2022-10-01T01:51:19.301Z,99432.59
2022-10-01T01:54:22.192Z,99420.53
2022-10-01T01:57:24.905Z,99413.34
2022-10-01T02:00:28.928Z,99409.19
2022-10-01T02:03:34.904Z,99412.84
2022-10-01T02:06:47.136Z,99403.81
2022-10-01T02:09:56.348Z,99404.84
2022-10-01T02:13:08.315Z,99411.50
2022-10-01T02:16:19.142Z,99424.06
2022-10-01T02:19:26.981Z,99406.50
2022-10-01T02:22:37.569Z,99416.19
2022-10-01T02:25:43.544Z,99413.50
2022-10-01T02:28:47.916Z,99414.50
2022-10-01T02:31:55.806Z,99415.00
2022-10-01T02:34:59.479Z,99422.19
2022-10-01T02:38:03.544Z,99418.50
2022-10-01T02:41:09.023Z,99425.22
2022-10-01T02:44:13.706Z,99426.53
2022-10-01T02:47:19.795Z,99430.75
2022-10-01T02:50:25.215Z,99425.44
2022-10-01T02:53:32.174Z,99427.72
2022-10-01T02:56:56.135Z,99431.78
2022-10-01T03:00:00.436Z,99431.94
2022-10-01T03:03:04.569Z,99433.72
2022-10-01T03:06:07.303Z,99435.56
2022-10-01T03:09:09.973Z,99443.97
2022-10-01T03:12:12.709Z,99437.38
2022-10-01T03:15:16.430Z,99438.13
2022-10-01T03:18:20.543Z,99439.63
2022-10-01T03:21:23.263Z,99440.25
2022-10-01T03:24:26.088Z,99449.97
2022-10-01T03:27:28.861Z,99445.44
2022-10-01T03:30:32.864Z,99440.13
2022-10-01T03:33:37.232Z,99447.16
2022-10-01T03:36:39.981Z,99444.81
2022-10-01T03:39:42.814Z,99438.97
2022-10-01T03:42:45.545Z,99446.09
2022-10-01T03:45:48.460Z,99445.41
2022-10-01T03:48:52.928Z,99439.84
2022-10-01T03:51:55.840Z,99444.78
2022-10-01T03:54:58.553Z,99449.09
2022-10-01T03:58:01.432Z,99456.34
2022-10-01T04:01:04.111Z,99461.34
2022-10-01T04:04:08.316Z,99451.44
2022-10-01T04:07:10.986Z,99448.75
2022-10-01T04:10:13.892Z,99454.44
2022-10-01T04:13:16.986Z,99457.41
2022-10-01T04:16:19.735Z,99454.94
2022-10-01T04:19:23.858Z,99454.00
2022-10-01T04:22:26.612Z,99450.28
2022-10-01T04:25:29.942Z,99449.94
2022-10-01T04:28:32.979Z,99449.78
2022-10-01T04:31:36.338Z,99448.75
2022-10-01T04:34:55.650Z,99448.25
2022-10-01T04:37:59.275Z,99458.78
2022-10-01T04:41:01.923Z,99462.09
2022-10-01T04:44:04.721Z,99454.75
2022-10-01T04:47:08.066Z,99461.69
2022-10-01T04:50:12.165Z,99460.66
2022-10-01T04:53:14.848Z,99468.03
2022-10-01T04:56:17.632Z,99477.69
2022-10-01T04:59:20.335Z,99472.34
2022-10-01T05:02:23.072Z,99469.69
2022-10-01T05:05:29.138Z,99475.41
2022-10-01T05:08:31.864Z,99472.50
2022-10-01T05:11:35.766Z,99469.66
2022-10-01T05:14:38.820Z,99475.50
2022-10-01T05:17:41.646Z,99475.91
2022-10-01T05:20:45.727Z,99483.09
2022-10-01T05:23:51.406Z,99486.38
2022-10-01T05:26:55.085Z,99482.25
2022-10-01T05:29:57.861Z,99485.91
2022-10-01T05:33:02.228Z,99478.75
2022-10-01T05:36:07.373Z,99477.09
2022-10-01T05:39:10.421Z,99483.47
2022-10-01T05:42:15.898Z,99490.16
2022-10-01T05:45:22.950Z,99493.81
2022-10-01T05:48:25.867Z,99487.28
2022-10-01T05:51:30.009Z,99492.84
2022-10-01T05:54:32.708Z,99493.53
2022-10-01T05:57:35.353Z,99493.00
2022-10-01T06:00:38.945Z,99493.03
2022-10-01T06:03:41.700Z,99486.84
2022-10-01T06:06:45.958Z,99493.72
2022-10-01T06:09:48.775Z,99496.06
2022-10-01T06:12:51.500Z,99496.06
2022-10-01T06:15:54.252Z,99493.72
2022-10-01T06:18:57.768Z,99494.72
2022-10-01T06:22:01.930Z,99494.06
2022-10-01T06:25:04.887Z,99492.75
2022-10-01T06:28:08.430Z,99487.22
2022-10-01T06:31:11.729Z,99493.13
2022-10-01T06:34:15.029Z,99485.50
2022-10-01T06:37:19.152Z,99489.69
2022-10-01T06:40:21.869Z,99493.75
2022-10-01T06:43:25.121Z,99489.88
2022-10-01T06:46:29.079Z,99480.19
2022-10-01T06:49:31.864Z,99484.88
2022-10-01T06:52:51.087Z,99482.38
2022-10-01T06:55:53.836Z,99473.03
2022-10-01T06:58:56.679Z,99475.22
2022-10-01T07:01:59.441Z,99471.53
2022-10-01T07:05:02.238Z,99474.84
2022-10-01T07:08:06.699Z,99480.56
2022-10-01T07:11:09.404Z,99486.41
2022-10-01T07:14:12.123Z,99490.13
2022-10-01T07:17:14.822Z,99485.91
2022-10-01T07:20:18.789Z,99483.09
2022-10-01T07:23:24.450Z,99477.41
2022-10-01T07:26:27.142Z,99481.25
2022-10-01T07:29:30.839Z,99483.41
2022-10-01T07:32:35.275Z,99491.94
2022-10-01T07:35:38.807Z,99485.41
2022-10-01T07:38:43.619Z,99483.56
2022-10-01T07:41:46.333Z,99485.56
2022-10-01T07:44:49.084Z,99476.56
2022-10-01T07:47:55.340Z,99473.72
2022-10-01T07:50:58.024Z,99467.34
2022-10-01T07:54:02.110Z,99470.50
2022-10-01T07:57:04.855Z,99478.06
2022-10-01T08:00:08.591Z,99463.31
2022-10-01T08:03:12.760Z,99471.34
2022-10-01T08:06:15.420Z,99472.00
2022-10-01T08:09:19.552Z,99457.56
2022-10-01T08:12:22.321Z,99451.34
2022-10-01T08:15:25.595Z,99451.47
2022-10-01T08:18:28.324Z,99458.53
2022-10-01T08:21:31.226Z,99451.88
2022-10-01T08:24:36.385Z,99436.06
2022-10-01T08:27:39.582Z,99436.72
2022-10-01T08:30:43.849Z,99438.72
2022-10-01T08:33:46.637Z,99443.88
2022-10-01T08:36:51.711Z,99440.66
2022-10-01T08:39:56.245Z,99441.63
2022-10-01T08:43:00.528Z,99423.19
2022-10-01T08:46:05.683Z,99428.56
2022-10-01T08:49:14.028Z,99419.81
2022-10-01T08:52:21.404Z,99429.22
2022-10-01T08:55:27.089Z,99428.84
2022-10-01T08:58:32.622Z,99416.38
2022-10-01T09:01:35.699Z,99409.56
2022-10-01T09:04:38.689Z,99413.69
2022-10-01T09:07:46.338Z,99408.78
2022-10-01T09:10:54.319Z,99408.78
2022-10-01T09:14:04.227Z,99401.88
2022-10-01T09:17:11.371Z,99395.78
2022-10-01T09:20:20.445Z,99402.44
2022-10-01T09:23:27.322Z,99396.03
2022-10-01T09:26:31.444Z,99385.78
2022-10-01T09:29:40.178Z,99382.53
2022-10-01T09:32:44.396Z,99381.63
2022-10-01T09:35:49.447Z,99381.63
2022-10-01T09:38:58.057Z,99381.63
2022-10-01T09:42:02.433Z,99382.09
2022-10-01T09:45:06.196Z,99385.34
2022-10-01T09:48:17.820Z,99367.00
2022-10-01T09:51:23.415Z,99376.34
2022-10-01T09:54:31.240Z,99372.78
2022-10-01T09:57:39.133Z,99362.56
2022-10-01T10:00:43.077Z,99362.03
2022-10-01T10:03:54.502Z,99363.19
2022-10-01T10:07:03.372Z,99349.31
2022-10-01T10:10:10.378Z,99346.34
2022-10-01T10:13:21.780Z,99347.75
2022-10-01T10:16:26.538Z,99347.56
2022-10-01T10:19:29.840Z,99338.00
2022-10-01T10:22:33.553Z,99332.16
2022-10-01T10:25:36.406Z,99333.63
2022-10-01T10:28:46.046Z,99327.66
2022-10-01T10:31:51.190Z,99321.81
2022-10-01T10:35:02.069Z,99319.00
2022-10-01T10:38:05.791Z,99322.72
2022-10-01T10:41:16.809Z,99318.81
2022-10-01T10:44:22.333Z,99303.91
2022-10-01T10:47:27.236Z,99296.69
2022-10-01T10:50:32.224Z,99299.75
2022-10-01T10:53:43.496Z,99299.41
2022-10-01T10:56:52.764Z,99295.53
2022-10-01T10:59:57.657Z,99303.16
2022-10-01T11:03:01.282Z,99300.03
2022-10-01T11:06:09.991Z,99296.78
2022-10-01T11:09:12.718Z,99294.75
2022-10-01T11:12:21.252Z,99288.34
2022-10-01T11:15:35.493Z,99287.63
2022-10-01T11:18:42.907Z,99284.59
2022-10-01T11:21:53.071Z,99286.78
2022-10-01T11:25:01.489Z,99279.06
2022-10-01T11:28:10.878Z,99274.50
2022-10-01T11:31:22.679Z,99270.16
2022-10-01T11:34:41.820Z,99260.72
2022-10-01T11:37:50.446Z,99261.47
2022-10-01T11:40:55.602Z,99266.94
2022-10-01T11:44:00.993Z,99265.34
2022-10-01T11:47:08.697Z,99257.97
2022-10-01T11:50:16.197Z,99259.06
2022-10-01T11:53:23.286Z,99261.81
2022-10-01T11:56:47.324Z,99255.97
2022-10-01T11:59:52.228Z,99266.75
2022-10-01T12:02:59.899Z,99262.31
2022-10-01T12:06:03.711Z,99262.13
2022-10-01T12:09:09.217Z,99256.50
2022-10-01T12:12:15.497Z,99257.75
2022-10-01T12:15:20.167Z,99257.47
2022-10-01T12:18:29.009Z,99265.97
2022-10-01T12:21:36.179Z,99254.25
2022-10-01T12:24:41.373Z,99264.06
2022-10-01T12:27:53.383Z,99272.50
2022-10-01T12:30:59.659Z,99266.47
2022-10-01T12:34:09.802Z,99256.28
2022-10-01T12:37:19.329Z,99253.97
2022-10-01T12:40:28.776Z,99256.94
2022-10-01T12:43:46.087Z,99275.16
2022-10-01T12:46:54.671Z,99258.53
2022-10-01T12:50:04.448Z,99268.72
2022-10-01T12:53:17.630Z,99273.59
2022-10-01T12:56:30.846Z,99268.50
2022-10-01T12:59:41.710Z,99267.97
2022-10-01T13:02:53.167Z,99257.34
2022-10-01T13:06:03.015Z,99258.13
2022-10-01T13:09:11.915Z,99260.72
2022-10-01T13:12:25.876Z,99265.03
2022-10-01T13:15:30.787Z,99266.69
2022-10-01T13:18:38.887Z,99269.38
2022-10-01T13:21:50.987Z,99273.38
2022-10-01T13:25:01.628Z,99264.25
2022-10-01T13:28:10.193Z,99268.03
2022-10-01T13:31:14.845Z,99262.00
2022-10-01T13:34:25.948Z,99254.97
2022-10-01T13:37:37.607Z,99251.66
2022-10-01T13:40:42.138Z,99252.13
2022-10-01T13:43:49.071Z,99259.38
2022-10-01T13:46:53.522Z,99256.63
2022-10-01T13:49:59.645Z,99259.94
2022-10-01T13:53:09.187Z,99257.59
2022-10-01T13:56:14.447Z,99254.28
2022-10-01T13:59:28.733Z,99247.84
2022-10-01T14:02:33.007Z,99257.16
2022-10-01T14:05:40.585Z,99257.31
2022-10-01T14:08:50.858Z,99247.47
2022-10-01T14:12:12.408Z,99249.25
2022-10-01T14:15:34.530Z,99252.38
2022-10-01T14:18:39.589Z,99261.16
2022-10-01T14:21:49.491Z,99259.50
2022-10-01T14:25:03.577Z,99261.09
2022-10-01T14:28:17.491Z,99263.00
2022-10-01T14:31:25.321Z,99267.31
2022-10-01T14:34:38.570Z,99266.66
2022-10-01T14:37:41.517Z,99256.94
2022-10-01T14:40:47.463Z,99262.34
2022-10-01T14:43:50.552Z,99260.78
2022-10-01T14:46:54.234Z,99258.38
2022-10-01T14:49:56.956Z,99253.66
2022-10-01T14:53:00.910Z,99255.50
2022-10-01T14:56:11.017Z,99251.56
2022-10-01T14:59:19.105Z,99248.75
2022-10-01T15:02:22.759Z,99250.03
2022-10-01T15:05:27.801Z,99245.59
2022-10-01T15:08:37.861Z,99244.31
2022-10-01T15:11:44.830Z,99249.41
2022-10-01T15:14:48.110Z,99245.63
2022-10-01T15:17:51.289Z,99242.53
2022-10-01T15:20:57.725Z,99247.09
2022-10-01T15:24:02.579Z,99235.88
2022-10-01T15:27:07.454Z,99243.38
2022-10-01T15:30:14.912Z,99250.22
2022-10-01T15:33:22.239Z,99247.03
2022-10-01T15:36:25.241Z,99246.59
2022-10-01T15:39:32.638Z,99247.09
2022-10-01T15:42:37.474Z,99243.00
2022-10-01T15:45:42.100Z,99243.84
2022-10-01T15:48:45.309Z,99242.75
2022-10-01T15:52:07.639Z,99239.16
2022-10-01T15:55:17.405Z,99233.16
2022-10-01T15:58:23.163Z,99241.56
2022-10-01T16:01:28.469Z,99242.28
2022-10-01T16:04:31.181Z,99228.09
2022-10-01T16:07:34.860Z,99235.88
2022-10-01T16:10:40.079Z,99232.19
2022-10-01T16:13:45.443Z,99240.16
2022-10-01T16:16:48.466Z,99238.91
2022-10-01T16:19:52.210Z,99240.66
2022-10-01T16:23:15.265Z,99244.09
2022-10-01T16:26:35.738Z,99240.22
2022-10-01T16:29:45.821Z,99235.84
2022-10-01T16:32:53.928Z,99233.16
2022-10-01T16:36:10.112Z,99231.06
2022-10-01T16:39:15.461Z,99235.41
2022-10-01T16:42:24.657Z,99232.41
2022-10-01T16:45:36.409Z,99233.72
2022-10-01T16:48:39.585Z,99230.22
2022-10-01T16:51:42.925Z,99230.81
2022-10-01T16:58:09.431Z,99245.53
2022-10-01T17:01:16.689Z,99237.56
2022-10-01T17:04:32.796Z,99237.13
2022-10-01T17:07:37.631Z,99234.66
2022-10-01T17:10:43.442Z,99234.53
2022-10-01T17:13:50.782Z,99240.06
2022-10-01T17:16:56.149Z,99231.03
2022-10-01T17:19:59.884Z,99235.34
2022-10-01T17:23:03.449Z,99226.53
2022-10-01T17:26:10.208Z,99228.66
2022-10-01T17:29:16.676Z,99224.25
2022-10-01T17:32:24.818Z,99212.44
2022-10-01T17:35:29.732Z,99202.94
2022-10-01T17:38:36.344Z,99201.25
2022-10-01T17:41:39.139Z,99197.31
2022-10-01T17:44:42.721Z,99196.72
2022-10-01T17:47:51.407Z,99189.94
2022-10-01T17:51:06.659Z,99195.50
2022-10-01T17:54:09.490Z,99190.22
2022-10-01T17:57:12.755Z,99190.22
2022-10-01T18:00:16.095Z,99192.50
2022-10-01T18:03:25.980Z,99177.13
2022-10-01T18:06:39.137Z,99179.97
2022-10-01T18:09:45.801Z,99181.41
2022-10-01T18:12:48.833Z,99176.38
2022-10-01T18:15:59.829Z,99167.38
2022-10-01T18:22:30.956Z,99164.78
2022-10-01T18:25:33.856Z,99166.94
2022-10-01T18:28:40.865Z,99166.69
2022-10-01T18:31:47.078Z,99147.06
2022-10-01T18:34:57.217Z,99148.91
2022-10-01T18:38:11.383Z,99147.53
2022-10-01T18:41:23.640Z,99151.22
2022-10-01T18:44:27.120Z,99138.66
2022-10-01T18:47:39.212Z,99129.09
2022-10-01T18:50:50.862Z,99123.03
2022-10-01T18:54:21.285Z,99125.72
2022-10-01T18:57:34.765Z,99122.16
2022-10-01T19:00:44.848Z,99123.00
2022-10-01T19:04:08.446Z,99112.47
2022-10-01T19:07:26.939Z,99117.47
2022-10-01T19:10:35.640Z,99113.75
2022-10-01T19:13:45.898Z,99119.13
2022-10-01T19:16:53.908Z,99123.47
2022-10-01T19:20:05.718Z,99123.78
2022-10-01T19:23:27.399Z,99123.47
2022-10-01T19:26:35.555Z,99129.47
2022-10-01T19:29:45.770Z,99125.19
2022-10-01T19:32:51.932Z,99118.31
2022-10-01T19:36:03.333Z,99109.44
2022-10-01T19:39:13.909Z,99101.34
2022-10-01T19:42:21.319Z,99102.97
2022-10-01T19:45:29.045Z,99101.94
2022-10-01T19:48:41.966Z,99094.19
2022-10-01T19:51:51.260Z,99096.63
2022-10-01T19:55:01.004Z,99086.44
2022-10-01T19:58:13.518Z,99087.63
2022-10-01T20:01:19.377Z,99075.03
2022-10-01T20:04:28.701Z,99083.88
2022-10-01T20:07:41.544Z,99066.47
2022-10-01T20:10:52.903Z,99064.63
2022-10-01T20:14:33.128Z,99057.06
2022-10-01T20:17:44.457Z,99063.53
2022-10-01T20:20:56.480Z,99060.84
2022-10-01T20:24:04.559Z,99061.75
2022-10-01T20:27:14.998Z,99062.31
2022-10-01T20:30:20.058Z,99060.13
2022-10-01T20:33:27.144Z,99054.91
2022-10-01T20:36:36.551Z,99054.19
2022-10-01T20:39:43.816Z,99051.97
2022-10-01T20:42:51.403Z,99053.66
2022-10-01T20:45:54.764Z,99043.53
2022-10-01T20:49:02.362Z,99034.19
2022-10-01T20:52:11.096Z,99033.00
2022-10-01T20:55:15.502Z,99026.13
2022-10-01T20:58:27.838Z,99029.53
2022-10-01T21:01:32.171Z,99022.03
2022-10-01T21:04:38.662Z,99025.13
2022-10-01T21:07:48.859Z,99020.22
2022-10-01T21:10:53.758Z,99014.53
2022-10-01T21:13:59.862Z,99015.41
2022-10-01T21:17:09.832Z,99015.41
2022-10-01T21:20:21.343Z,99007.19
2022-10-01T21:23:37.194Z,99008.91
2022-10-01T21:26:47.651Z,98999.84
2022-10-01T21:30:03.334Z,98996.06
2022-10-01T21:33:13.094Z,98989.03
2022-10-01T21:36:19.379Z,98990.78
2022-10-01T21:39:26.563Z,98991.50
2022-10-01T21:42:33.164Z,98985.69
2022-10-01T21:45:43.207Z,98985.16
2022-10-01T21:48:48.357Z,98984.50
2022-10-01T21:51:59.270Z,98976.09
2022-10-01T21:55:18.222Z,98972.84
2022-10-01T21:58:26.747Z,98977.38
2022-10-01T22:01:36.588Z,98973.16
2022-10-01T22:04:41.430Z,98974.44
2022-10-01T22:07:49.941Z,98969.56
2022-10-01T22:10:54.158Z,98956.69
2022-10-01T22:13:58.421Z,98951.41
2022-10-01T22:17:04.809Z,98947.00
2022-10-01T22:20:09.020Z,98946.63
2022-10-01T22:23:13.099Z,98945.91
2022-10-01T22:26:18.155Z,98944.63
2022-10-01T22:29:23.442Z,98933.50
2022-10-01T22:32:30.526Z,98933.31
2022-10-01T22:35:35.301Z,98929.97
2022-10-01T22:38:41.755Z,98918.06
2022-10-01T22:41:46.472Z,98920.09
2022-10-01T22:44:49.199Z,98919.72
2022-10-01T22:48:05.944Z,98910.22
2022-10-01T22:51:13.533Z,98910.94
2022-10-01T22:54:26.492Z,98910.09
2022-10-01T22:57:38.280Z,98904.25
2022-10-01T23:00:45.576Z,98907.22
2022-10-01T23:03:57.248Z,98902.34
2022-10-01T23:07:03.615Z,98887.53
2022-10-01T23:10:10.551Z,98884.72
2022-10-01T23:13:20.467Z,98876.69
2022-10-01T23:16:28.121Z,98873.38
2022-10-01T23:19:38.137Z,98867.22
2022-10-01T23:22:50.931Z,98869.38
2022-10-01T23:25:59.643Z,98864.25
2022-10-01T23:29:17.646Z,98862.28
2022-10-01T23:32:26.880Z,98858.84
2022-10-01T23:35:36.636Z,98855.34
2022-10-01T23:38:52.328Z,98851.00
2022-10-01T23:41:58.096Z,98843.31
2022-10-01T23:45:07.888Z,98843.78
2022-10-01T23:48:14.302Z,98839.81
2022-10-01T23:51:22.944Z,98837.81
2022-10-01T23:54:27.829Z,98834.66
2022-10-01T23:57:31.370Z,98830.25
